createdAt,value
2017-07-24T00:01:33.725Z,10.33
2017-07-24T00:04:00.420Z,8.80
2017-07-24T00:06:27.117Z,9.20
2017-07-24T00:08:53.838Z,8.80
2017-07-24T00:11:20.534Z,8.77
2017-07-24T00:13:47.344Z,8.83
2017-07-24T00:16:14.058Z,9.17
2017-07-24T00:18:40.763Z,9.83
2017-07-24T00:21:07.452Z,9.80
2017-07-24T00:23:34.164Z,9.43
2017-07-24T00:26:01.344Z,9.53
2017-07-24T00:28:28.070Z,9.53
2017-07-24T00:30:54.793Z,10.37
2017-07-24T00:33:21.487Z,9.33
2017-07-24T00:35:48.181Z,11.43
2017-07-24T00:38:14.915Z,9.70
2017-07-24T00:40:41.610Z,13.10
2017-07-24T00:43:08.321Z,9.03
2017-07-24T00:45:35.052Z,8.93
2017-07-24T00:48:01.741Z,9.20
2017-07-24T00:50:28.435Z,9.73
2017-07-24T00:52:55.151Z,9.20
2017-07-24T00:55:21.833Z,9.87
2017-07-24T00:57:48.522Z,9.80
2017-07-24T01:00:15.255Z,10.77
2017-07-24T01:02:41.953Z,10.60
2017-07-24T01:05:08.650Z,13.50
2017-07-24T01:07:35.357Z,9.73
2017-07-24T01:10:02.069Z,10.87
2017-07-24T01:12:28.759Z,10.90
2017-07-24T01:14:55.493Z,10.50
2017-07-24T01:17:22.192Z,13.40
2017-07-24T01:19:49.688Z,9.43
2017-07-24T01:22:16.423Z,10.50
2017-07-24T01:24:43.118Z,10.77
2017-07-24T01:27:09.805Z,8.60
2017-07-24T01:29:36.543Z,9.10
2017-07-24T01:32:03.236Z,9.53
2017-07-24T01:34:29.924Z,9.40
2017-07-24T01:36:56.629Z,10.67
2017-07-24T01:39:23.321Z,10.17
2017-07-24T01:41:50.065Z,10.53
2017-07-24T01:44:16.798Z,10.77
2017-07-24T01:46:43.486Z,13.63
2017-07-24T01:49:10.173Z,13.93
2017-07-24T01:51:36.876Z,11.03
2017-07-24T01:54:03.596Z,11.40
2017-07-24T01:56:30.289Z,10.40
2017-07-24T01:58:57.018Z,11.00
2017-07-24T02:01:23.747Z,10.80
2017-07-24T02:03:50.445Z,10.70
2017-07-24T02:06:17.160Z,10.97
2017-07-24T02:08:43.850Z,11.90
2017-07-24T02:11:10.536Z,10.40
2017-07-24T02:13:37.239Z,9.57
2017-07-24T02:16:03.946Z,10.97
2017-07-24T02:18:30.627Z,9.07
2017-07-24T02:20:57.356Z,9.60
2017-07-24T02:23:24.047Z,8.90
2017-07-24T02:25:50.741Z,9.53
2017-07-24T02:28:17.453Z,9.30
2017-07-24T02:30:44.166Z,9.33
2017-07-24T02:33:10.864Z,9.27
2017-07-24T02:35:37.576Z,11.00
2017-07-24T02:38:04.294Z,10.53
2017-07-24T02:40:30.992Z,10.13
2017-07-24T02:42:57.711Z,10.67
2017-07-24T02:45:24.407Z,10.27
2017-07-24T02:47:51.088Z,9.63
2017-07-24T02:50:17.805Z,10.97
2017-07-24T02:52:44.496Z,8.30
2017-07-24T02:55:11.202Z,14.17
2017-07-24T02:57:37.940Z,9.73
2017-07-24T03:00:04.648Z,10.83
2017-07-24T03:02:31.342Z,11.30
2017-07-24T03:04:58.065Z,11.27
2017-07-24T03:07:24.768Z,11.17
2017-07-24T03:09:51.476Z,10.80
2017-07-24T03:12:18.202Z,11.97
2017-07-24T03:14:44.915Z,11.77
2017-07-24T03:17:11.639Z,11.63
2017-07-24T03:19:38.359Z,10.10
2017-07-24T03:22:05.062Z,9.10
2017-07-24T03:24:31.761Z,11.57
2017-07-24T03:26:58.470Z,9.30
2017-07-24T03:29:25.174Z,11.13
2017-07-24T03:31:51.884Z,11.47
2017-07-24T03:34:18.598Z,13.47
2017-07-24T03:36:45.315Z,14.50
2017-07-24T03:39:12.024Z,11.77
2017-07-24T03:41:38.752Z,13.00
2017-07-24T03:44:05.443Z,10.33
2017-07-24T03:46:32.130Z,8.97
2017-07-24T03:48:58.834Z,9.53
2017-07-24T03:51:25.536Z,7.87
2017-07-24T03:53:52.222Z,9.13
2017-07-24T03:56:18.943Z,7.30
2017-07-24T03:58:45.626Z,7.93
2017-07-24T04:01:12.322Z,9.10
2017-07-24T04:03:39.041Z,7.63
2017-07-24T04:06:05.740Z,8.13
2017-07-24T04:08:32.423Z,7.80
2017-07-24T04:10:59.137Z,7.17
2017-07-24T04:13:25.832Z,7.80
2017-07-24T04:15:52.522Z,7.37
2017-07-24T04:18:19.233Z,5.37
2017-07-24T04:20:45.929Z,5.50
2017-07-24T04:23:12.614Z,6.63
2017-07-24T04:25:39.316Z,4.70
2017-07-24T04:28:06.014Z,3.70
2017-07-24T04:30:32.700Z,5.73
2017-07-24T04:32:59.433Z,5.13
2017-07-24T04:35:26.125Z,7.40
2017-07-24T04:37:52.853Z,7.40
2017-07-24T04:40:19.563Z,4.70
2017-07-24T04:42:46.252Z,4.60
2017-07-24T04:45:12.942Z,5.73
2017-07-24T04:47:39.695Z,4.67
2017-07-24T04:50:06.383Z,5.30
2017-07-24T04:52:33.114Z,5.13
2017-07-24T04:54:59.843Z,6.90
2017-07-24T04:57:26.549Z,6.13
2017-07-24T04:59:53.251Z,5.97
2017-07-24T05:02:19.991Z,5.63
2017-07-24T05:04:46.684Z,5.30
2017-07-24T05:07:13.391Z,7.53
2017-07-24T05:09:40.114Z,6.83
2017-07-24T05:12:06.802Z,4.43
2017-07-24T05:14:33.497Z,4.33
2017-07-24T05:17:00.213Z,5.23
2017-07-24T05:19:26.906Z,4.50
2017-07-24T05:21:53.624Z,4.20
2017-07-24T05:24:20.336Z,7.77
2017-07-24T05:26:47.026Z,8.60
2017-07-24T05:29:13.723Z,9.70
2017-07-24T05:31:40.441Z,7.20
2017-07-24T05:34:07.132Z,5.77
2017-07-24T05:36:33.829Z,6.83
2017-07-24T05:39:00.525Z,4.60
2017-07-24T05:41:27.438Z,5.37
2017-07-24T05:43:54.120Z,5.30
2017-07-24T05:46:20.844Z,4.20
2017-07-24T05:48:47.543Z,5.87
2017-07-24T05:51:14.226Z,5.90
2017-07-24T05:53:40.925Z,5.93
2017-07-24T05:56:07.619Z,5.40
2017-07-24T05:58:34.307Z,5.60
2017-07-24T06:01:01.162Z,8.23
2017-07-24T06:03:27.898Z,6.00
2017-07-24T06:05:54.610Z,6.07
2017-07-24T06:08:21.308Z,6.77
2017-07-24T06:10:47.996Z,8.40
2017-07-24T06:13:14.701Z,6.57
2017-07-24T06:15:41.430Z,6.73
2017-07-24T06:18:08.139Z,6.47
2017-07-24T06:20:34.833Z,6.90
2017-07-24T06:23:01.546Z,7.60
2017-07-24T06:25:28.238Z,7.03
2017-07-24T06:27:54.951Z,7.10
2017-07-24T06:30:21.646Z,6.10
2017-07-24T06:32:48.351Z,7.17
2017-07-24T06:35:15.033Z,7.37
2017-07-24T06:37:41.733Z,6.40
2017-07-24T06:40:08.470Z,6.43
2017-07-24T06:42:35.170Z,8.00
2017-07-24T06:45:01.911Z,8.03
2017-07-24T06:47:28.604Z,6.43
2017-07-24T06:49:55.303Z,7.20
2017-07-24T06:52:22.031Z,6.87
2017-07-24T06:54:48.726Z,6.90
2017-07-24T06:57:15.409Z,7.30
2017-07-24T06:59:42.106Z,6.00
2017-07-24T07:02:08.817Z,7.07
2017-07-24T07:04:35.502Z,6.87
2017-07-24T07:07:02.203Z,6.40
2017-07-24T07:09:28.911Z,5.80
2017-07-24T07:11:55.624Z,6.40
2017-07-24T07:14:22.337Z,7.30
2017-07-24T07:16:49.028Z,7.67
2017-07-24T07:19:15.724Z,5.90
2017-07-24T07:21:42.438Z,7.10
2017-07-24T07:24:09.133Z,6.60
2017-07-24T07:26:35.879Z,8.17
2017-07-24T07:29:02.598Z,6.00
2017-07-24T07:31:29.293Z,6.47
2017-07-24T07:33:55.989Z,6.87
2017-07-24T07:36:22.695Z,7.37
2017-07-24T07:38:49.395Z,6.40
2017-07-24T07:41:16.085Z,6.67
2017-07-24T07:43:42.790Z,6.93
2017-07-24T07:46:09.482Z,11.00
2017-07-24T07:48:36.167Z,7.83
2017-07-24T07:51:02.893Z,5.50
2017-07-24T07:53:29.582Z,6.60
2017-07-24T07:55:56.295Z,6.30
2017-07-24T07:58:23.001Z,7.20
2017-07-24T08:00:49.699Z,7.17
2017-07-24T08:03:16.398Z,7.37
2017-07-24T08:05:43.121Z,6.80
2017-07-24T08:08:09.828Z,6.97
2017-07-24T08:10:36.539Z,7.17
2017-07-24T08:13:03.241Z,6.63
2017-07-24T08:15:29.951Z,6.40
2017-07-24T08:17:56.658Z,7.50
2017-07-24T08:20:23.357Z,6.77
2017-07-24T08:22:50.050Z,5.77
2017-07-24T08:25:16.746Z,6.47
2017-07-24T08:27:43.446Z,6.77
2017-07-24T08:30:10.150Z,7.37
2017-07-24T08:32:36.845Z,6.90
2017-07-24T08:35:03.561Z,6.57
2017-07-24T08:37:30.265Z,6.77
2017-07-24T08:39:56.965Z,7.10
2017-07-24T08:42:23.677Z,7.30
2017-07-24T08:44:50.389Z,8.63
2017-07-24T08:47:17.083Z,6.93
2017-07-24T08:49:43.800Z,8.83
2017-07-24T08:52:10.535Z,10.63
2017-07-24T08:54:37.249Z,12.30
2017-07-24T08:57:03.982Z,12.40
2017-07-24T08:59:31.232Z,8.27
2017-07-24T09:01:57.939Z,9.50
2017-07-24T09:04:24.649Z,8.63
2017-07-24T09:06:51.337Z,8.00
2017-07-24T09:09:18.030Z,12.50
2017-07-24T09:11:44.778Z,8.07
2017-07-24T09:14:11.473Z,10.97
2017-07-24T09:16:38.168Z,8.73
2017-07-24T09:19:04.906Z,10.53
2017-07-24T09:21:31.612Z,8.80
2017-07-24T09:23:58.306Z,9.33
2017-07-24T09:26:25.034Z,9.50
2017-07-24T09:28:51.734Z,8.77
2017-07-24T09:31:18.474Z,8.40
2017-07-24T09:33:45.181Z,9.40
2017-07-24T09:36:11.874Z,8.63
2017-07-24T09:38:38.591Z,8.13
2017-07-24T09:41:05.317Z,5.63
2017-07-24T09:43:32.038Z,4.60
2017-07-24T09:45:58.733Z,2.30
2017-07-24T09:48:25.474Z,2.63
2017-07-24T09:50:52.172Z,4.97
2017-07-24T09:53:18.863Z,4.67
2017-07-24T09:55:45.569Z,3.83
2017-07-24T09:58:12.270Z,5.53
2017-07-24T10:00:38.975Z,4.77
2017-07-24T10:03:05.688Z,2.40
2017-07-24T10:05:32.387Z,3.50
2017-07-24T10:07:59.073Z,3.03
2017-07-24T10:10:25.809Z,4.47
2017-07-24T10:12:52.507Z,2.70
2017-07-24T10:15:19.212Z,4.07
2017-07-24T10:17:45.929Z,3.77
2017-07-24T10:20:12.659Z,4.20
2017-07-24T10:22:39.356Z,2.13
2017-07-24T10:25:06.096Z,3.03
2017-07-24T10:27:32.800Z,7.03
2017-07-24T10:29:59.495Z,2.27
2017-07-24T10:32:26.201Z,5.53
2017-07-24T10:34:52.896Z,6.93
2017-07-24T10:37:19.621Z,2.97
2017-07-24T10:39:46.348Z,2.57
2017-07-24T10:42:13.034Z,3.33
2017-07-24T10:44:39.718Z,3.83
2017-07-24T10:47:06.427Z,10.07
2017-07-24T10:49:34.191Z,3.67
2017-07-24T10:52:00.885Z,3.30
2017-07-24T10:54:27.613Z,2.87
2017-07-24T10:56:54.319Z,6.40
2017-07-24T10:59:21.021Z,3.63
2017-07-24T11:01:47.749Z,4.67
2017-07-24T11:04:14.445Z,4.80
2017-07-24T11:06:41.133Z,3.83
2017-07-24T11:09:07.857Z,3.77
2017-07-24T11:11:34.595Z,4.57
2017-07-24T11:14:01.288Z,3.37
2017-07-24T11:16:27.998Z,3.27
2017-07-24T11:18:54.706Z,4.00
2017-07-24T11:21:21.402Z,5.27
2017-07-24T11:23:48.155Z,3.20
2017-07-24T11:26:14.853Z,3.03
2017-07-24T11:28:41.545Z,2.93
2017-07-24T11:31:08.257Z,3.70
2017-07-24T11:33:34.950Z,2.43
2017-07-24T11:36:01.652Z,2.93
2017-07-24T11:38:28.361Z,2.93
2017-07-24T11:40:55.054Z,3.23
2017-07-24T11:43:21.752Z,2.40
2017-07-24T11:45:48.462Z,3.20
2017-07-24T11:48:15.194Z,3.73
2017-07-24T11:50:41.902Z,3.93
2017-07-24T11:53:08.655Z,4.30
2017-07-24T11:55:35.351Z,3.00
2017-07-24T11:58:02.042Z,3.07
2017-07-24T12:00:28.780Z,3.27
2017-07-24T12:02:55.469Z,2.90
2017-07-24T12:05:22.158Z,4.00
2017-07-24T12:07:48.870Z,2.57
2017-07-24T12:10:15.568Z,4.27
2017-07-24T12:12:42.294Z,4.57
2017-07-24T12:15:09.017Z,4.10
2017-07-24T12:17:35.730Z,6.87
2017-07-24T12:20:02.420Z,3.40
2017-07-24T12:22:29.130Z,4.70
2017-07-24T12:24:55.849Z,5.67
2017-07-24T12:27:22.577Z,5.20
2017-07-24T12:29:49.284Z,2.83
2017-07-24T12:32:15.987Z,2.40
2017-07-24T12:34:42.698Z,2.73
2017-07-24T12:37:09.402Z,4.03
2017-07-24T12:39:36.097Z,2.80
2017-07-24T12:42:02.796Z,2.30
2017-07-24T12:44:29.519Z,4.63
2017-07-24T12:46:56.208Z,2.30
2017-07-24T12:49:22.938Z,2.20
2017-07-24T12:51:49.648Z,2.77
2017-07-24T12:54:16.350Z,2.13
2017-07-24T12:56:43.043Z,2.40
2017-07-24T12:59:09.732Z,3.63
2017-07-24T13:01:36.422Z,3.70
2017-07-24T13:04:03.101Z,2.67
2017-07-24T13:06:29.798Z,2.60
2017-07-24T13:08:56.485Z,2.80
2017-07-24T13:11:23.182Z,2.03
2017-07-24T13:13:49.915Z,2.63
2017-07-24T13:16:16.615Z,3.70
2017-07-24T13:18:43.305Z,3.07
2017-07-24T13:21:10.014Z,3.43
2017-07-24T13:23:36.706Z,2.40
2017-07-24T13:26:03.390Z,2.07
2017-07-24T13:28:30.100Z,2.40
2017-07-24T13:30:56.800Z,2.50
2017-07-24T13:33:23.506Z,2.13
2017-07-24T13:35:50.218Z,6.13
2017-07-24T13:38:16.909Z,2.17
2017-07-24T13:40:43.602Z,1.73
2017-07-24T13:43:10.338Z,1.90
2017-07-24T13:45:37.035Z,1.97
2017-07-24T13:48:03.760Z,4.27
2017-07-24T13:50:30.477Z,2.33
2017-07-24T13:52:57.185Z,2.10
2017-07-24T13:55:23.884Z,2.00
2017-07-24T13:57:50.590Z,2.40
2017-07-24T14:00:17.461Z,2.83
2017-07-24T14:02:44.164Z,1.70
2017-07-24T14:05:10.870Z,1.70
2017-07-24T14:07:37.573Z,1.87
2017-07-24T14:10:04.270Z,2.00
2017-07-24T14:12:30.982Z,1.83
2017-07-24T14:14:57.716Z,1.77
2017-07-24T14:17:24.408Z,2.03
2017-07-24T14:19:51.128Z,1.90
2017-07-24T14:22:17.847Z,2.63
2017-07-24T14:24:44.541Z,2.27
2017-07-24T14:27:11.251Z,2.00
2017-07-24T14:29:37.971Z,2.97
2017-07-24T14:32:04.710Z,2.07
2017-07-24T14:34:31.444Z,2.33
2017-07-24T14:36:59.889Z,2.00
2017-07-24T14:39:26.586Z,2.07
2017-07-24T14:41:53.298Z,2.10
2017-07-24T14:44:20.003Z,3.77
2017-07-24T14:46:46.695Z,3.37
2017-07-24T14:49:13.415Z,2.60
2017-07-24T14:51:40.109Z,2.47
2017-07-24T14:54:06.796Z,2.10
2017-07-24T14:56:33.511Z,2.30
2017-07-24T14:59:00.202Z,1.97
2017-07-24T15:01:26.889Z,2.13
2017-07-24T15:03:53.611Z,2.47
2017-07-24T15:06:20.333Z,2.53
2017-07-24T15:08:47.029Z,2.57
2017-07-24T15:11:13.873Z,2.90
2017-07-24T15:13:51.258Z,3.03
2017-07-24T15:16:17.986Z,3.70
2017-07-24T15:18:44.684Z,2.50
2017-07-24T15:21:11.394Z,2.43
2017-07-24T15:23:38.099Z,3.43
2017-07-24T15:26:04.794Z,5.10
2017-07-24T15:28:31.513Z,2.90
2017-07-24T15:30:58.253Z,3.53
2017-07-24T15:33:24.943Z,4.10
2017-07-24T15:35:51.639Z,3.60
2017-07-24T15:38:18.373Z,3.13
2017-07-24T15:40:45.077Z,3.87
2017-07-24T15:43:11.775Z,3.60
2017-07-24T15:45:38.512Z,3.30
2017-07-24T15:48:05.214Z,3.30
2017-07-24T15:50:31.907Z,3.83
2017-07-24T15:52:58.621Z,2.70
2017-07-24T15:55:25.320Z,3.60
2017-07-24T15:57:52.030Z,5.00
2017-07-24T16:00:18.742Z,3.07
2017-07-24T16:02:45.448Z,3.67
2017-07-24T16:05:12.146Z,2.33
2017-07-24T16:07:38.843Z,2.20
2017-07-24T16:10:05.553Z,2.00
2017-07-24T16:12:32.319Z,2.17
2017-07-24T16:14:59.098Z,4.80
2017-07-24T16:17:25.801Z,2.43
2017-07-24T16:19:52.530Z,2.30
2017-07-24T16:22:19.262Z,2.33
2017-07-24T16:24:45.957Z,4.90
2017-07-24T16:27:12.655Z,2.40
2017-07-24T16:29:39.390Z,2.60
2017-07-24T16:32:06.099Z,3.13
2017-07-24T16:34:32.791Z,2.70
2017-07-24T16:36:59.512Z,2.60
2017-07-24T16:39:26.225Z,2.83
2017-07-24T16:41:52.918Z,2.63
2017-07-24T16:44:19.636Z,3.10
2017-07-24T16:46:46.347Z,2.50
2017-07-24T16:49:13.035Z,2.90
2017-07-24T16:51:39.732Z,2.70
2017-07-24T16:54:06.436Z,3.83
2017-07-24T16:56:33.132Z,2.70
2017-07-24T16:58:59.855Z,3.30
2017-07-24T17:01:26.541Z,2.80
2017-07-24T17:03:53.234Z,3.57
2017-07-24T17:06:19.965Z,3.17
2017-07-24T17:08:46.684Z,2.70
2017-07-24T17:11:13.377Z,2.50
2017-07-24T17:13:40.085Z,2.50
2017-07-24T17:16:06.783Z,2.50
2017-07-24T17:18:33.470Z,2.83
2017-07-24T17:21:00.180Z,4.20
2017-07-24T17:23:26.881Z,4.40
2017-07-24T17:25:53.598Z,4.00
2017-07-24T17:28:20.328Z,3.10
2017-07-24T17:30:47.016Z,3.20
2017-07-24T17:33:13.717Z,3.30
2017-07-24T17:35:40.671Z,3.27
2017-07-24T17:38:07.411Z,3.73
2017-07-24T17:40:34.113Z,3.63
2017-07-24T17:43:01.198Z,4.53
2017-07-24T17:45:28.002Z,3.90
2017-07-24T17:47:54.713Z,4.43
2017-07-24T17:50:21.507Z,6.53
2017-07-24T17:52:49.659Z,5.60
2017-07-24T17:55:16.360Z,3.00
2017-07-24T17:57:43.062Z,3.60
2017-07-24T18:00:09.746Z,3.70
2017-07-24T18:02:36.446Z,4.30
2017-07-24T18:05:03.155Z,2.40
2017-07-24T18:07:29.900Z,3.33
2017-07-24T18:09:56.594Z,2.50
2017-07-24T18:12:23.333Z,3.80
2017-07-24T18:14:50.046Z,7.40
2017-07-24T18:17:16.734Z,5.50
2017-07-24T18:19:43.511Z,2.60
2017-07-24T18:22:10.211Z,3.30
2017-07-24T18:24:36.903Z,2.53
2017-07-24T18:27:03.612Z,2.20
2017-07-24T18:29:30.345Z,2.73
2017-07-24T18:31:57.063Z,2.00
2017-07-24T18:34:23.777Z,1.70
2017-07-24T18:36:50.467Z,2.60
2017-07-24T18:39:17.205Z,5.67
2017-07-24T18:41:44.103Z,1.20
2017-07-24T18:44:10.827Z,1.73
2017-07-24T18:46:37.568Z,2.00
2017-07-24T18:49:04.360Z,1.33
2017-07-24T18:51:32.706Z,1.80
2017-07-24T18:53:59.444Z,1.10
2017-07-24T18:56:31.481Z,3.57
2017-07-24T18:58:58.368Z,1.40
2017-07-24T19:01:25.146Z,2.50
2017-07-24T19:03:51.890Z,1.20
2017-07-24T19:06:18.581Z,1.50
2017-07-24T19:08:45.282Z,2.50
2017-07-24T19:11:11.994Z,1.00
2017-07-24T19:13:38.709Z,1.00
2017-07-24T19:16:05.424Z,1.70
2017-07-24T19:18:32.161Z,0.90
2017-07-24T19:20:58.862Z,1.37
2017-07-24T19:23:25.549Z,3.10
2017-07-24T19:25:52.251Z,1.77
2017-07-24T19:28:18.951Z,1.10
2017-07-24T19:30:45.671Z,1.17
2017-07-24T19:33:12.394Z,1.73
2017-07-24T19:35:39.116Z,0.70
2017-07-24T19:38:05.807Z,1.23
2017-07-24T19:40:32.513Z,1.10
2017-07-24T19:42:59.242Z,2.00
2017-07-24T19:45:25.947Z,0.90
2017-07-24T19:47:52.668Z,1.73
2017-07-24T19:50:19.393Z,2.47
2017-07-24T19:52:46.108Z,0.63
2017-07-24T19:55:12.812Z,1.60
2017-07-24T19:57:39.498Z,0.97
2017-07-24T20:00:06.188Z,1.30
2017-07-24T20:02:32.906Z,1.80
2017-07-24T20:04:59.613Z,0.77
2017-07-24T20:07:27.293Z,0.77
2017-07-24T20:09:54.018Z,0.90
2017-07-24T20:12:20.748Z,1.20
2017-07-24T20:14:47.472Z,4.10
2017-07-24T20:17:14.235Z,1.87
2017-07-24T20:19:43.889Z,0.80
2017-07-24T20:22:10.635Z,3.30
2017-07-24T20:24:37.369Z,2.17
2017-07-24T20:27:04.102Z,0.90
2017-07-24T20:29:30.820Z,0.80
2017-07-24T20:31:57.628Z,1.87
2017-07-24T20:34:24.325Z,2.70
2017-07-24T20:36:51.055Z,0.73
2017-07-24T20:39:17.785Z,2.30
2017-07-24T20:41:44.479Z,4.83
2017-07-24T20:44:11.180Z,0.70
2017-07-24T20:46:37.957Z,0.50
2017-07-24T20:49:04.701Z,2.87
2017-07-24T20:51:31.415Z,2.93
2017-07-24T20:53:58.151Z,0.70
2017-07-24T20:56:24.875Z,0.97
2017-07-24T20:58:51.623Z,0.80
2017-07-24T21:01:18.345Z,4.47
2017-07-24T21:03:45.029Z,2.53
2017-07-24T21:06:11.766Z,2.70
2017-07-24T21:08:38.511Z,3.13
2017-07-24T21:11:05.271Z,1.90
2017-07-24T21:13:32.294Z,2.00
2017-07-24T21:15:59.071Z,0.80
2017-07-24T21:18:25.762Z,0.53
2017-07-24T21:20:52.678Z,3.43
2017-07-24T21:23:19.492Z,0.77
2017-07-24T21:25:46.183Z,1.17
2017-07-24T21:28:13.930Z,1.83
2017-07-24T21:30:40.691Z,0.70
2017-07-24T21:33:07.398Z,0.90
2017-07-24T21:35:34.104Z,1.47
2017-07-24T21:38:00.809Z,0.60
2017-07-24T21:40:27.511Z,0.67
2017-07-24T21:42:54.212Z,1.83
2017-07-24T21:45:20.924Z,0.60
2017-07-24T21:47:47.615Z,1.60
2017-07-24T21:50:14.309Z,7.33
2017-07-24T21:52:41.030Z,1.10
2017-07-24T21:55:07.714Z,1.43
2017-07-24T21:57:34.402Z,1.27
2017-07-24T22:00:01.127Z,0.67
2017-07-24T22:02:27.838Z,0.60
2017-07-24T22:04:54.557Z,2.70
2017-07-24T22:07:21.266Z,0.90
2017-07-24T22:09:47.949Z,1.07
2017-07-24T22:12:14.636Z,1.37
2017-07-24T22:14:41.354Z,0.83
2017-07-24T22:17:08.042Z,0.80
2017-07-24T22:19:34.736Z,7.50
2017-07-24T22:22:01.452Z,2.10
2017-07-24T22:24:28.145Z,1.27
2017-07-24T22:26:54.838Z,5.07
2017-07-24T22:29:21.562Z,1.57
2017-07-24T22:31:48.249Z,1.83
2017-07-24T22:34:14.980Z,1.57
2017-07-24T22:36:41.682Z,1.10
2017-07-24T22:39:08.371Z,5.33
2017-07-24T22:41:35.058Z,2.40
2017-07-24T22:44:01.806Z,1.20
2017-07-24T22:46:28.484Z,2.10
2017-07-24T22:48:55.234Z,1.70
2017-07-24T22:51:21.939Z,2.57
2017-07-24T22:53:48.628Z,1.20
2017-07-24T22:56:15.321Z,1.97
2017-07-24T22:58:42.030Z,1.97
2017-07-24T23:01:08.717Z,2.57
2017-07-24T23:03:35.421Z,5.77
2017-07-24T23:06:02.146Z,4.10
2017-07-24T23:08:28.877Z,1.63
2017-07-24T23:10:55.599Z,2.80
2017-07-24T23:13:22.323Z,1.40
2017-07-24T23:15:49.011Z,2.90
2017-07-24T23:18:15.701Z,5.00
2017-07-24T23:20:42.403Z,1.63
2017-07-24T23:23:09.090Z,3.00
2017-07-24T23:25:35.798Z,1.07
2017-07-24T23:28:02.521Z,5.00
2017-07-24T23:30:29.236Z,1.53
2017-07-24T23:32:55.937Z,2.00
2017-07-24T23:35:22.646Z,4.60
2017-07-24T23:37:49.357Z,2.87
2017-07-24T23:40:16.075Z,1.27
2017-07-24T23:42:42.785Z,1.77
2017-07-24T23:45:09.490Z,5.47
2017-07-24T23:47:36.195Z,2.37
2017-07-24T23:50:02.928Z,2.10
2017-07-24T23:52:29.625Z,6.63
2017-07-24T23:54:56.318Z,0.97
2017-07-24T23:57:23.011Z,3.47
2017-07-24T23:59:49.702Z,4.60
